sensor_id;sensor_type;location;lat;lon;timestamp;pressure;altitude;pressure_sealevel;temperature
10869;BMP180;62667;48.698;8.762;2023-11-22T00:02:18;96186.00;;;6.70
10869;BMP180;62667;48.698;8.762;2023-11-22T00:04:46;96184.00;;;6.70
10869;BMP180;62667;48.698;8.762;2023-11-22T00:07:13;96189.00;;;6.70
10869;BMP180;62667;48.698;8.762;2023-11-22T00:09:42;96184.00;;;6.70
10869;BMP180;62667;48.698;8.762;2023-11-22T00:12:10;96184.00;;;6.70
10869;BMP180;62667;48.698;8.762;2023-11-22T00:14:37;96188.00;;;6.70
10869;BMP180;62667;48.698;8.762;2023-11-22T00:17:05;96196.00;;;6.70
10869;BMP180;62667;48.698;8.762;2023-11-22T00:19:32;96183.00;;;6.70
10869;BMP180;62667;48.698;8.762;2023-11-22T00:22:00;96182.00;;;6.70
10869;BMP180;62667;48.698;8.762;2023-11-22T00:24:31;96186.00;;;6.70
10869;BMP180;62667;48.698;8.762;2023-11-22T00:26:59;96190.00;;;6.70
10869;BMP180;62667;48.698;8.762;2023-11-22T00:29:27;96175.00;;;6.70
10869;BMP180;62667;48.698;8.762;2023-11-22T00:31:54;96179.00;;;6.70
10869;BMP180;62667;48.698;8.762;2023-11-22T00:34:24;96193.00;;;6.70
10869;BMP180;62667;48.698;8.762;2023-11-22T00:36:52;96213.00;;;6.70
10869;BMP180;62667;48.698;8.762;2023-11-22T00:39:20;96209.00;;;6.70
10869;BMP180;62667;48.698;8.762;2023-11-22T00:41:48;96210.00;;;6.50
10869;BMP180;62667;48.698;8.762;2023-11-22T00:44:17;96218.00;;;6.20
10869;BMP180;62667;48.698;8.762;2023-11-22T00:46:45;96215.00;;;6.20
10869;BMP180;62667;48.698;8.762;2023-11-22T00:49:12;96209.00;;;6.20
10869;BMP180;62667;48.698;8.762;2023-11-22T00:51:40;96230.00;;;6.10
10869;BMP180;62667;48.698;8.762;2023-11-22T00:54:08;96235.00;;;6.00
10869;BMP180;62667;48.698;8.762;2023-11-22T00:56:35;96254.00;;;5.80
10869;BMP180;62667;48.698;8.762;2023-11-22T00:59:03;96245.00;;;5.80
10869;BMP180;62667;48.698;8.762;2023-11-22T01:01:31;96256.00;;;5.70
10869;BMP180;62667;48.698;8.762;2023-11-22T01:03:59;96252.00;;;5.70
10869;BMP180;62667;48.698;8.762;2023-11-22T01:06:26;96264.00;;;5.70
10869;BMP180;62667;48.698;8.762;2023-11-22T01:08:55;96259.00;;;5.60
10869;BMP180;62667;48.698;8.762;2023-11-22T01:11:22;96270.00;;;5.50
10869;BMP180;62667;48.698;8.762;2023-11-22T01:13:50;96273.00;;;5.50
10869;BMP180;62667;48.698;8.762;2023-11-22T01:16:17;96275.00;;;5.40
10869;BMP180;62667;48.698;8.762;2023-11-22T01:18:46;96279.00;;;5.40
10869;BMP180;62667;48.698;8.762;2023-11-22T01:21:13;96285.00;;;5.30
10869;BMP180;62667;48.698;8.762;2023-11-22T01:23:41;96276.00;;;5.20
10869;BMP180;62667;48.698;8.762;2023-11-22T01:26:08;96277.00;;;5.20
10869;BMP180;62667;48.698;8.762;2023-11-22T01:28:36;96285.00;;;5.10
10869;BMP180;62667;48.698;8.762;2023-11-22T01:31:03;96296.00;;;5.10
10869;BMP180;62667;48.698;8.762;2023-11-22T01:33:31;96291.00;;;5.10
10869;BMP180;62667;48.698;8.762;2023-11-22T01:36:02;96299.00;;;5.20
10869;BMP180;62667;48.698;8.762;2023-11-22T01:38:29;96304.00;;;5.10
10869;BMP180;62667;48.698;8.762;2023-11-22T01:40:57;96296.00;;;5.00
10869;BMP180;62667;48.698;8.762;2023-11-22T01:43:27;96300.00;;;5.00
10869;BMP180;62667;48.698;8.762;2023-11-22T01:45:55;96299.00;;;4.90
10869;BMP180;62667;48.698;8.762;2023-11-22T01:48:23;96304.00;;;4.80
10869;BMP180;62667;48.698;8.762;2023-11-22T01:50:50;96321.00;;;4.90
10869;BMP180;62667;48.698;8.762;2023-11-22T01:53:19;96313.00;;;4.90
10869;BMP180;62667;48.698;8.762;2023-11-22T01:55:48;96304.00;;;4.80
10869;BMP180;62667;48.698;8.762;2023-11-22T01:58:15;96318.00;;;4.70
10869;BMP180;62667;48.698;8.762;2023-11-22T02:00:48;96324.00;;;4.80
10869;BMP180;62667;48.698;8.762;2023-11-22T02:03:16;96325.00;;;4.70
10869;BMP180;62667;48.698;8.762;2023-11-22T02:05:44;96330.00;;;4.60
10869;BMP180;62667;48.698;8.762;2023-11-22T02:08:11;96324.00;;;4.60
10869;BMP180;62667;48.698;8.762;2023-11-22T02:10:41;96334.00;;;4.50
10869;BMP180;62667;48.698;8.762;2023-11-22T02:13:10;96336.00;;;4.50
10869;BMP180;62667;48.698;8.762;2023-11-22T02:15:38;96336.00;;;4.60
10869;BMP180;62667;48.698;8.762;2023-11-22T02:18:05;96342.00;;;4.60
10869;BMP180;62667;48.698;8.762;2023-11-22T02:20:33;96335.00;;;4.50
10869;BMP180;62667;48.698;8.762;2023-11-22T02:23:07;96334.00;;;4.50
10869;BMP180;62667;48.698;8.762;2023-11-22T02:25:35;96344.00;;;4.40
10869;BMP180;62667;48.698;8.762;2023-11-22T02:28:03;96341.00;;;4.40
10869;BMP180;62667;48.698;8.762;2023-11-22T02:30:30;96344.00;;;4.40
10869;BMP180;62667;48.698;8.762;2023-11-22T02:32:57;96348.00;;;4.30
10869;BMP180;62667;48.698;8.762;2023-11-22T02:35:25;96345.00;;;4.30
10869;BMP180;62667;48.698;8.762;2023-11-22T02:37:53;96363.00;;;4.20
10869;BMP180;62667;48.698;8.762;2023-11-22T02:40:22;96364.00;;;4.10
10869;BMP180;62667;48.698;8.762;2023-11-22T02:42:51;96365.00;;;4.10
10869;BMP180;62667;48.698;8.762;2023-11-22T02:45:28;96363.00;;;4.00
10869;BMP180;62667;48.698;8.762;2023-11-22T02:47:56;96373.00;;;4.00
10869;BMP180;62667;48.698;8.762;2023-11-22T02:50:23;96374.00;;;3.90
10869;BMP180;62667;48.698;8.762;2023-11-22T02:52:51;96374.00;;;3.90
10869;BMP180;62667;48.698;8.762;2023-11-22T02:55:20;96379.00;;;3.90
10869;BMP180;62667;48.698;8.762;2023-11-22T02:57:48;96382.00;;;3.90
10869;BMP180;62667;48.698;8.762;2023-11-22T03:00:16;96385.00;;;3.80
10869;BMP180;62667;48.698;8.762;2023-11-22T03:02:46;96385.00;;;3.70
10869;BMP180;62667;48.698;8.762;2023-11-22T03:05:14;96391.00;;;3.70
10869;BMP180;62667;48.698;8.762;2023-11-22T03:07:41;96407.00;;;3.60
10869;BMP180;62667;48.698;8.762;2023-11-22T03:10:09;96401.00;;;3.70
10869;BMP180;62667;48.698;8.762;2023-11-22T03:12:38;96396.00;;;3.70
10869;BMP180;62667;48.698;8.762;2023-11-22T03:15:06;96412.00;;;3.70
10869;BMP180;62667;48.698;8.762;2023-11-22T03:17:34;96414.00;;;3.60
10869;BMP180;62667;48.698;8.762;2023-11-22T03:20:01;96414.00;;;3.60
10869;BMP180;62667;48.698;8.762;2023-11-22T03:22:28;96412.00;;;3.60
10869;BMP180;62667;48.698;8.762;2023-11-22T03:24:58;96417.00;;;3.50
10869;BMP180;62667;48.698;8.762;2023-11-22T03:27:26;96408.00;;;3.40
10869;BMP180;62667;48.698;8.762;2023-11-22T03:29:54;96403.00;;;3.40
10869;BMP180;62667;48.698;8.762;2023-11-22T03:32:22;96409.00;;;3.50
10869;BMP180;62667;48.698;8.762;2023-11-22T03:34:49;96412.00;;;3.50
10869;BMP180;62667;48.698;8.762;2023-11-22T03:37:17;96421.00;;;3.50
10869;BMP180;62667;48.698;8.762;2023-11-22T03:39:45;96422.00;;;3.60
10869;BMP180;62667;48.698;8.762;2023-11-22T03:42:14;96421.00;;;3.50
10869;BMP180;62667;48.698;8.762;2023-11-22T03:44:43;96440.00;;;3.40
10869;BMP180;62667;48.698;8.762;2023-11-22T03:47:13;96440.00;;;3.50
10869;BMP180;62667;48.698;8.762;2023-11-22T03:49:41;96430.00;;;3.40
10869;BMP180;62667;48.698;8.762;2023-11-22T03:52:09;96450.00;;;3.30
10869;BMP180;62667;48.698;8.762;2023-11-22T03:54:37;96450.00;;;3.40
10869;BMP180;62667;48.698;8.762;2023-11-22T03:57:05;96454.00;;;3.40
10869;BMP180;62667;48.698;8.762;2023-11-22T03:59:34;96456.00;;;3.30
10869;BMP180;62667;48.698;8.762;2023-11-22T04:02:02;96457.00;;;3.40
10869;BMP180;62667;48.698;8.762;2023-11-22T04:04:31;96463.00;;;3.40
10869;BMP180;62667;48.698;8.762;2023-11-22T04:06:58;96463.00;;;3.30
10869;BMP180;62667;48.698;8.762;2023-11-22T04:09:26;96472.00;;;3.30
10869;BMP180;62667;48.698;8.762;2023-11-22T04:11:53;96470.00;;;3.30
10869;BMP180;62667;48.698;8.762;2023-11-22T04:14:20;96473.00;;;3.30
10869;BMP180;62667;48.698;8.762;2023-11-22T04:16:48;96473.00;;;3.30
10869;BMP180;62667;48.698;8.762;2023-11-22T04:19:16;96473.00;;;3.30
10869;BMP180;62667;48.698;8.762;2023-11-22T04:21:44;96474.00;;;3.20
10869;BMP180;62667;48.698;8.762;2023-11-22T04:24:12;96465.00;;;3.20
10869;BMP180;62667;48.698;8.762;2023-11-22T04:26:39;96474.00;;;3.20
10869;BMP180;62667;48.698;8.762;2023-11-22T04:29:07;96470.00;;;3.20
10869;BMP180;62667;48.698;8.762;2023-11-22T04:31:34;96476.00;;;3.30
10869;BMP180;62667;48.698;8.762;2023-11-22T04:34:02;96484.00;;;3.30
10869;BMP180;62667;48.698;8.762;2023-11-22T04:36:29;96489.00;;;3.30
10869;BMP180;62667;48.698;8.762;2023-11-22T04:38:58;96475.00;;;3.30
10869;BMP180;62667;48.698;8.762;2023-11-22T04:41:29;96487.00;;;3.20
10869;BMP180;62667;48.698;8.762;2023-11-22T04:43:56;96500.00;;;3.40
10869;BMP180;62667;48.698;8.762;2023-11-22T04:46:24;96505.00;;;3.20
10869;BMP180;62667;48.698;8.762;2023-11-22T04:48:51;96503.00;;;3.20
10869;BMP180;62667;48.698;8.762;2023-11-22T04:51:19;96513.00;;;3.10
10869;BMP180;62667;48.698;8.762;2023-11-22T04:53:46;96519.00;;;3.30
10869;BMP180;62667;48.698;8.762;2023-11-22T04:56:15;96530.00;;;3.20
10869;BMP180;62667;48.698;8.762;2023-11-22T04:58:42;96527.00;;;3.20
10869;BMP180;62667;48.698;8.762;2023-11-22T05:01:10;96520.00;;;3.20
10869;BMP180;62667;48.698;8.762;2023-11-22T05:03:37;96530.00;;;3.20
10869;BMP180;62667;48.698;8.762;2023-11-22T05:06:05;96530.00;;;3.10
10869;BMP180;62667;48.698;8.762;2023-11-22T05:08:33;96529.00;;;3.10
10869;BMP180;62667;48.698;8.762;2023-11-22T05:11:00;96543.00;;;3.10
10869;BMP180;62667;48.698;8.762;2023-11-22T05:13:32;96547.00;;;3.10
10869;BMP180;62667;48.698;8.762;2023-11-22T05:16:00;96547.00;;;3.10
10869;BMP180;62667;48.698;8.762;2023-11-22T05:18:27;96540.00;;;3.10
10869;BMP180;62667;48.698;8.762;2023-11-22T05:20:54;96542.00;;;3.00
10869;BMP180;62667;48.698;8.762;2023-11-22T05:23:22;96550.00;;;3.00
10869;BMP180;62667;48.698;8.762;2023-11-22T05:25:49;96561.00;;;3.20
10869;BMP180;62667;48.698;8.762;2023-11-22T05:28:18;96560.00;;;3.30
10869;BMP180;62667;48.698;8.762;2023-11-22T05:30:48;96560.00;;;3.10
10869;BMP180;62667;48.698;8.762;2023-11-22T05:33:15;96560.00;;;3.10
10869;BMP180;62667;48.698;8.762;2023-11-22T05:35:43;96567.00;;;3.00
10869;BMP180;62667;48.698;8.762;2023-11-22T05:38:11;96555.00;;;3.00
10869;BMP180;62667;48.698;8.762;2023-11-22T05:40:38;96564.00;;;2.90
10869;BMP180;62667;48.698;8.762;2023-11-22T05:43:06;96558.00;;;2.90
10869;BMP180;62667;48.698;8.762;2023-11-22T05:45:34;96559.00;;;2.90
10869;BMP180;62667;48.698;8.762;2023-11-22T05:48:03;96552.00;;;3.00
10869;BMP180;62667;48.698;8.762;2023-11-22T05:50:31;96570.00;;;2.90
10869;BMP180;62667;48.698;8.762;2023-11-22T05:52:58;96571.00;;;2.90
10869;BMP180;62667;48.698;8.762;2023-11-22T05:55:29;96578.00;;;2.90
10869;BMP180;62667;48.698;8.762;2023-11-22T05:57:56;96570.00;;;2.90
10869;BMP180;62667;48.698;8.762;2023-11-22T06:00:24;96580.00;;;2.90
10869;BMP180;62667;48.698;8.762;2023-11-22T06:02:52;96590.00;;;3.00
10869;BMP180;62667;48.698;8.762;2023-11-22T06:05:22;96596.00;;;2.90
10869;BMP180;62667;48.698;8.762;2023-11-22T06:07:51;96591.00;;;2.90
10869;BMP180;62667;48.698;8.762;2023-11-22T06:10:18;96602.00;;;2.90
10869;BMP180;62667;48.698;8.762;2023-11-22T06:12:46;96612.00;;;3.00
10869;BMP180;62667;48.698;8.762;2023-11-22T06:15:13;96612.00;;;3.00
10869;BMP180;62667;48.698;8.762;2023-11-22T06:17:41;96614.00;;;2.90
10869;BMP180;62667;48.698;8.762;2023-11-22T06:20:09;96622.00;;;3.00
10869;BMP180;62667;48.698;8.762;2023-11-22T06:22:38;96617.00;;;3.00
10869;BMP180;62667;48.698;8.762;2023-11-22T06:25:08;96631.00;;;2.90
10869;BMP180;62667;48.698;8.762;2023-11-22T06:27:36;96625.00;;;2.80
10869;BMP180;62667;48.698;8.762;2023-11-22T06:30:05;96635.00;;;2.90
10869;BMP180;62667;48.698;8.762;2023-11-22T06:32:33;96632.00;;;2.90
10869;BMP180;62667;48.698;8.762;2023-11-22T06:35:01;96634.00;;;2.80
10869;BMP180;62667;48.698;8.762;2023-11-22T06:37:29;96643.00;;;2.90
10869;BMP180;62667;48.698;8.762;2023-11-22T06:39:58;96638.00;;;2.80
10869;BMP180;62667;48.698;8.762;2023-11-22T06:42:25;96638.00;;;2.90
10869;BMP180;62667;48.698;8.762;2023-11-22T06:44:52;96645.00;;;2.90
10869;BMP180;62667;48.698;8.762;2023-11-22T06:47:24;96635.00;;;2.80
10869;BMP180;62667;48.698;8.762;2023-11-22T06:49:51;96628.00;;;2.90
10869;BMP180;62667;48.698;8.762;2023-11-22T06:52:19;96635.00;;;2.90
10869;BMP180;62667;48.698;8.762;2023-11-22T06:54:46;96642.00;;;2.80
10869;BMP180;62667;48.698;8.762;2023-11-22T06:57:15;96644.00;;;2.80
10869;BMP180;62667;48.698;8.762;2023-11-22T06:59:42;96649.00;;;2.90
10869;BMP180;62667;48.698;8.762;2023-11-22T07:02:10;96644.00;;;2.90
10869;BMP180;62667;48.698;8.762;2023-11-22T07:04:37;96654.00;;;2.90
10869;BMP180;62667;48.698;8.762;2023-11-22T07:07:05;96655.00;;;2.90
10869;BMP180;62667;48.698;8.762;2023-11-22T07:09:37;96653.00;;;2.80
10869;BMP180;62667;48.698;8.762;2023-11-22T07:12:08;96669.00;;;2.90
10869;BMP180;62667;48.698;8.762;2023-11-22T07:14:37;96657.00;;;3.00
10869;BMP180;62667;48.698;8.762;2023-11-22T07:17:05;96677.00;;;2.90
10869;BMP180;62667;48.698;8.762;2023-11-22T07:19:33;96678.00;;;2.90
10869;BMP180;62667;48.698;8.762;2023-11-22T07:22:04;96678.00;;;2.90
10869;BMP180;62667;48.698;8.762;2023-11-22T07:24:41;96669.00;;;2.90
10869;BMP180;62667;48.698;8.762;2023-11-22T07:27:10;96676.00;;;2.80
10869;BMP180;62667;48.698;8.762;2023-11-22T07:29:40;96680.00;;;3.00
10869;BMP180;62667;48.698;8.762;2023-11-22T07:32:08;96692.00;;;2.80
10869;BMP180;62667;48.698;8.762;2023-11-22T07:34:37;96695.00;;;2.80
10869;BMP180;62667;48.698;8.762;2023-11-22T07:37:05;96701.00;;;2.80
10869;BMP180;62667;48.698;8.762;2023-11-22T07:39:33;96700.00;;;2.80
10869;BMP180;62667;48.698;8.762;2023-11-22T07:42:02;96717.00;;;2.80
10869;BMP180;62667;48.698;8.762;2023-11-22T07:44:29;96714.00;;;2.80
10869;BMP180;62667;48.698;8.762;2023-11-22T07:47:02;96713.00;;;2.90
10869;BMP180;62667;48.698;8.762;2023-11-22T07:49:34;96728.00;;;2.80
10869;BMP180;62667;48.698;8.762;2023-11-22T07:52:03;96703.00;;;2.80
10869;BMP180;62667;48.698;8.762;2023-11-22T07:54:31;96705.00;;;2.80
10869;BMP180;62667;48.698;8.762;2023-11-22T07:56:58;96702.00;;;2.70
10869;BMP180;62667;48.698;8.762;2023-11-22T07:59:26;96710.00;;;2.80
10869;BMP180;62667;48.698;8.762;2023-11-22T08:01:53;96712.00;;;2.80
10869;BMP180;62667;48.698;8.762;2023-11-22T08:04:22;96704.00;;;2.70
10869;BMP180;62667;48.698;8.762;2023-11-22T08:06:51;96708.00;;;2.70
10869;BMP180;62667;48.698;8.762;2023-11-22T08:09:23;96681.00;;;2.70
10869;BMP180;62667;48.698;8.762;2023-11-22T08:11:50;96697.00;;;2.70
10869;BMP180;62667;48.698;8.762;2023-11-22T08:14:19;96719.00;;;2.70
10869;BMP180;62667;48.698;8.762;2023-11-22T08:16:47;96716.00;;;2.70
10869;BMP180;62667;48.698;8.762;2023-11-22T08:19:14;96720.00;;;2.70
10869;BMP180;62667;48.698;8.762;2023-11-22T08:21:43;96724.00;;;2.80
10869;BMP180;62667;48.698;8.762;2023-11-22T08:24:11;96715.00;;;2.80
10869;BMP180;62667;48.698;8.762;2023-11-22T08:26:39;96721.00;;;2.70
10869;BMP180;62667;48.698;8.762;2023-11-22T08:29:06;96715.00;;;2.70
10869;BMP180;62667;48.698;8.762;2023-11-22T08:31:34;96721.00;;;2.70
10869;BMP180;62667;48.698;8.762;2023-11-22T08:34:02;96720.00;;;2.70
10869;BMP180;62667;48.698;8.762;2023-11-22T08:36:32;96714.00;;;2.90
10869;BMP180;62667;48.698;8.762;2023-11-22T08:39:02;96708.00;;;2.90
10869;BMP180;62667;48.698;8.762;2023-11-22T08:41:30;96706.00;;;2.80
10869;BMP180;62667;48.698;8.762;2023-11-22T08:43:58;96703.00;;;2.70
10869;BMP180;62667;48.698;8.762;2023-11-22T08:46:27;96711.00;;;2.80
10869;BMP180;62667;48.698;8.762;2023-11-22T08:48:54;96724.00;;;2.90
10869;BMP180;62667;48.698;8.762;2023-11-22T08:51:22;96730.00;;;2.90
10869;BMP180;62667;48.698;8.762;2023-11-22T08:53:50;96731.00;;;2.90
10869;BMP180;62667;48.698;8.762;2023-11-22T08:56:19;96739.00;;;2.90
10869;BMP180;62667;48.698;8.762;2023-11-22T08:58:46;96745.00;;;3.00
10869;BMP180;62667;48.698;8.762;2023-11-22T09:01:14;96745.00;;;3.10
10869;BMP180;62667;48.698;8.762;2023-11-22T09:03:42;96749.00;;;3.10
10869;BMP180;62667;48.698;8.762;2023-11-22T09:06:10;96734.00;;;3.10
10869;BMP180;62667;48.698;8.762;2023-11-22T09:08:37;96746.00;;;3.30
10869;BMP180;62667;48.698;8.762;2023-11-22T09:11:05;96729.00;;;3.50
10869;BMP180;62667;48.698;8.762;2023-11-22T09:13:34;96725.00;;;3.40
10869;BMP180;62667;48.698;8.762;2023-11-22T09:16:02;96726.00;;;3.40
10869;BMP180;62667;48.698;8.762;2023-11-22T09:18:31;96734.00;;;3.50
10869;BMP180;62667;48.698;8.762;2023-11-22T09:21:01;96724.00;;;3.50
10869;BMP180;62667;48.698;8.762;2023-11-22T09:23:28;96721.00;;;3.40
10869;BMP180;62667;48.698;8.762;2023-11-22T09:25:56;96728.00;;;3.50
10869;BMP180;62667;48.698;8.762;2023-11-22T09:28:23;96722.00;;;3.60
10869;BMP180;62667;48.698;8.762;2023-11-22T09:30:53;96722.00;;;3.70
10869;BMP180;62667;48.698;8.762;2023-11-22T09:33:27;96720.00;;;3.70
10869;BMP180;62667;48.698;8.762;2023-11-22T09:35:55;96724.00;;;3.90
10869;BMP180;62667;48.698;8.762;2023-11-22T09:38:22;96729.00;;;3.90
10869;BMP180;62667;48.698;8.762;2023-11-22T09:40:52;96746.00;;;4.00
10869;BMP180;62667;48.698;8.762;2023-11-22T09:43:19;96748.00;;;3.80
10869;BMP180;62667;48.698;8.762;2023-11-22T09:45:50;96744.00;;;3.90
10869;BMP180;62667;48.698;8.762;2023-11-22T09:48:23;96736.00;;;3.70
10869;BMP180;62667;48.698;8.762;2023-11-22T09:50:57;96748.00;;;3.70
10869;BMP180;62667;48.698;8.762;2023-11-22T09:53:32;96750.00;;;3.70
10869;BMP180;62667;48.698;8.762;2023-11-22T09:56:02;96758.00;;;3.50
10869;BMP180;62667;48.698;8.762;2023-11-22T09:58:31;96750.00;;;3.50
10869;BMP180;62667;48.698;8.762;2023-11-22T10:01:00;96759.00;;;3.40
10869;BMP180;62667;48.698;8.762;2023-11-22T10:03:29;96769.00;;;3.40
10869;BMP180;62667;48.698;8.762;2023-11-22T10:05:57;96769.00;;;3.40
10869;BMP180;62667;48.698;8.762;2023-11-22T10:08:26;96780.00;;;3.50
10869;BMP180;62667;48.698;8.762;2023-11-22T10:10:54;96782.00;;;3.50
10869;BMP180;62667;48.698;8.762;2023-11-22T10:13:22;96771.00;;;3.60
10869;BMP180;62667;48.698;8.762;2023-11-22T10:15:49;96780.00;;;3.60
10869;BMP180;62667;48.698;8.762;2023-11-22T10:18:19;96776.00;;;3.60
10869;BMP180;62667;48.698;8.762;2023-11-22T10:20:49;96781.00;;;3.60
10869;BMP180;62667;48.698;8.762;2023-11-22T10:23:19;96774.00;;;3.70
10869;BMP180;62667;48.698;8.762;2023-11-22T10:25:51;96774.00;;;3.80
10869;BMP180;62667;48.698;8.762;2023-11-22T10:28:20;96779.00;;;3.80
10869;BMP180;62667;48.698;8.762;2023-11-22T10:30:48;96786.00;;;3.80
10869;BMP180;62667;48.698;8.762;2023-11-22T10:33:16;96775.00;;;3.80
10869;BMP180;62667;48.698;8.762;2023-11-22T10:35:48;96773.00;;;3.80
10869;BMP180;62667;48.698;8.762;2023-11-22T10:38:15;96778.00;;;3.80
10869;BMP180;62667;48.698;8.762;2023-11-22T10:40:43;96780.00;;;4.00
10869;BMP180;62667;48.698;8.762;2023-11-22T10:43:12;96774.00;;;4.00
10869;BMP180;62667;48.698;8.762;2023-11-22T10:45:41;96770.00;;;4.20
10869;BMP180;62667;48.698;8.762;2023-11-22T10:48:12;96761.00;;;4.20
10869;BMP180;62667;48.698;8.762;2023-11-22T10:50:42;96764.00;;;4.20
10869;BMP180;62667;48.698;8.762;2023-11-22T10:53:12;96761.00;;;4.10
10869;BMP180;62667;48.698;8.762;2023-11-22T10:55:44;96783.00;;;4.10
10869;BMP180;62667;48.698;8.762;2023-11-22T10:58:15;96800.00;;;4.20
10869;BMP180;62667;48.698;8.762;2023-11-22T11:00:43;96802.00;;;4.20
10869;BMP180;62667;48.698;8.762;2023-11-22T11:03:15;96814.00;;;4.20
10869;BMP180;62667;48.698;8.762;2023-11-22T11:05:50;96814.00;;;4.10
10869;BMP180;62667;48.698;8.762;2023-11-22T11:08:20;96820.00;;;4.10
10869;BMP180;62667;48.698;8.762;2023-11-22T11:10:48;96818.00;;;3.90
10869;BMP180;62667;48.698;8.762;2023-11-22T11:13:16;96822.00;;;3.80
10869;BMP180;62667;48.698;8.762;2023-11-22T11:15:45;96811.00;;;3.70
10869;BMP180;62667;48.698;8.762;2023-11-22T11:18:15;96816.00;;;3.80
10869;BMP180;62667;48.698;8.762;2023-11-22T11:20:46;96815.00;;;3.80
10869;BMP180;62667;48.698;8.762;2023-11-22T11:23:16;96819.00;;;3.60
10869;BMP180;62667;48.698;8.762;2023-11-22T11:25:44;96822.00;;;3.70
10869;BMP180;62667;48.698;8.762;2023-11-22T11:28:12;96816.00;;;3.70
10869;BMP180;62667;48.698;8.762;2023-11-22T11:30:46;96832.00;;;3.40
10869;BMP180;62667;48.698;8.762;2023-11-22T11:33:16;96834.00;;;3.40
10869;BMP180;62667;48.698;8.762;2023-11-22T11:35:47;96833.00;;;3.30
10869;BMP180;62667;48.698;8.762;2023-11-22T11:38:17;96827.00;;;3.30
10869;BMP180;62667;48.698;8.762;2023-11-22T11:40:49;96821.00;;;3.40
10869;BMP180;62667;48.698;8.762;2023-11-22T11:43:21;96821.00;;;3.40
10869;BMP180;62667;48.698;8.762;2023-11-22T11:45:48;96824.00;;;3.40
10869;BMP180;62667;48.698;8.762;2023-11-22T11:48:16;96835.00;;;3.40
10869;BMP180;62667;48.698;8.762;2023-11-22T11:50:44;96836.00;;;3.30
10869;BMP180;62667;48.698;8.762;2023-11-22T11:53:13;96847.00;;;3.30
10869;BMP180;62667;48.698;8.762;2023-11-22T11:55:40;96847.00;;;3.30
10869;BMP180;62667;48.698;8.762;2023-11-22T11:58:12;96843.00;;;3.20
10869;BMP180;62667;48.698;8.762;2023-11-22T12:00:43;96845.00;;;3.20
10869;BMP180;62667;48.698;8.762;2023-11-22T12:03:10;96849.00;;;3.20
10869;BMP180;62667;48.698;8.762;2023-11-22T12:05:38;96848.00;;;3.20
10869;BMP180;62667;48.698;8.762;2023-11-22T12:08:06;96856.00;;;3.20
10869;BMP180;62667;48.698;8.762;2023-11-22T12:10:35;96863.00;;;3.30
10869;BMP180;62667;48.698;8.762;2023-11-22T12:13:02;96856.00;;;3.10
10869;BMP180;62667;48.698;8.762;2023-11-22T12:15:31;96871.00;;;3.10
10869;BMP180;62667;48.698;8.762;2023-11-22T12:17:59;96884.00;;;3.20
10869;BMP180;62667;48.698;8.762;2023-11-22T12:20:27;96868.00;;;3.20
10869;BMP180;62667;48.698;8.762;2023-11-22T12:22:57;96866.00;;;3.20
10869;BMP180;62667;48.698;8.762;2023-11-22T12:25:27;96874.00;;;3.20
10869;BMP180;62667;48.698;8.762;2023-11-22T12:27:55;96888.00;;;3.10
10869;BMP180;62667;48.698;8.762;2023-11-22T12:30:32;96884.00;;;3.10
10869;BMP180;62667;48.698;8.762;2023-11-22T12:33:04;96880.00;;;3.00
10869;BMP180;62667;48.698;8.762;2023-11-22T12:35:31;96883.00;;;3.00
10869;BMP180;62667;48.698;8.762;2023-11-22T12:38:00;96890.00;;;3.20
10869;BMP180;62667;48.698;8.762;2023-11-22T12:40:29;96890.00;;;3.10
10869;BMP180;62667;48.698;8.762;2023-11-22T12:42:59;96884.00;;;3.10
10869;BMP180;62667;48.698;8.762;2023-11-22T12:45:30;96877.00;;;3.10
10869;BMP180;62667;48.698;8.762;2023-11-22T12:48:20;96881.00;;;3.00
10869;BMP180;62667;48.698;8.762;2023-11-22T12:50:49;96878.00;;;2.90
10869;BMP180;62667;48.698;8.762;2023-11-22T12:53:18;96873.00;;;2.90
10869;BMP180;62667;48.698;8.762;2023-11-22T12:55:48;96879.00;;;2.90
10869;BMP180;62667;48.698;8.762;2023-11-22T12:58:16;96882.00;;;2.90
10869;BMP180;62667;48.698;8.762;2023-11-22T13:00:46;96880.00;;;2.90
10869;BMP180;62667;48.698;8.762;2023-11-22T13:03:17;96872.00;;;2.90
10869;BMP180;62667;48.698;8.762;2023-11-22T13:05:45;96877.00;;;2.80
10869;BMP180;62667;48.698;8.762;2023-11-22T13:08:14;96865.00;;;2.80
10869;BMP180;62667;48.698;8.762;2023-11-22T13:10:44;96875.00;;;2.80
10869;BMP180;62667;48.698;8.762;2023-11-22T13:13:13;96868.00;;;2.80
10869;BMP180;62667;48.698;8.762;2023-11-22T13:15:41;96864.00;;;2.80
10869;BMP180;62667;48.698;8.762;2023-11-22T13:18:10;96866.00;;;2.90
10869;BMP180;62667;48.698;8.762;2023-11-22T13:20:38;96866.00;;;3.00
10869;BMP180;62667;48.698;8.762;2023-11-22T13:23:07;96860.00;;;3.00
10869;BMP180;62667;48.698;8.762;2023-11-22T13:25:36;96858.00;;;3.00
10869;BMP180;62667;48.698;8.762;2023-11-22T13:28:04;96856.00;;;3.00
10869;BMP180;62667;48.698;8.762;2023-11-22T13:30:32;96851.00;;;3.00
10869;BMP180;62667;48.698;8.762;2023-11-22T13:33:00;96879.00;;;3.10
10869;BMP180;62667;48.698;8.762;2023-11-22T13:35:30;96881.00;;;3.10
10869;BMP180;62667;48.698;8.762;2023-11-22T13:37:58;96893.00;;;3.00
10869;BMP180;62667;48.698;8.762;2023-11-22T13:40:28;96890.00;;;2.90
10869;BMP180;62667;48.698;8.762;2023-11-22T13:42:59;96889.00;;;2.80
10869;BMP180;62667;48.698;8.762;2023-11-22T13:45:27;96895.00;;;2.80
10869;BMP180;62667;48.698;8.762;2023-11-22T13:47:55;96877.00;;;2.70
10869;BMP180;62667;48.698;8.762;2023-11-22T13:50:31;96861.00;;;2.60
10869;BMP180;62667;48.698;8.762;2023-11-22T13:52:58;96876.00;;;2.60
10869;BMP180;62667;48.698;8.762;2023-11-22T13:55:26;96859.00;;;2.70
10869;BMP180;62667;48.698;8.762;2023-11-22T13:57:55;96854.00;;;2.70
10869;BMP180;62667;48.698;8.762;2023-11-22T14:00:24;96873.00;;;2.60
10869;BMP180;62667;48.698;8.762;2023-11-22T14:02:53;96877.00;;;2.60
10869;BMP180;62667;48.698;8.762;2023-11-22T14:05:22;96880.00;;;2.60
10869;BMP180;62667;48.698;8.762;2023-11-22T14:07:51;96885.00;;;2.60
10869;BMP180;62667;48.698;8.762;2023-11-22T14:10:19;96873.00;;;2.70
10869;BMP180;62667;48.698;8.762;2023-11-22T14:12:49;96869.00;;;2.60
10869;BMP180;62667;48.698;8.762;2023-11-22T14:15:16;96881.00;;;2.60
10869;BMP180;62667;48.698;8.762;2023-11-22T14:17:45;96889.00;;;2.60
10869;BMP180;62667;48.698;8.762;2023-11-22T14:20:17;96895.00;;;2.60
10869;BMP180;62667;48.698;8.762;2023-11-22T14:22:45;96901.00;;;2.40
10869;BMP180;62667;48.698;8.762;2023-11-22T14:25:14;96902.00;;;2.50
10869;BMP180;62667;48.698;8.762;2023-11-22T14:27:43;96911.00;;;2.40
10869;BMP180;62667;48.698;8.762;2023-11-22T14:30:11;96903.00;;;2.30